createdAt,value
2022-08-08T00:01:06.684Z,101115.72
2022-08-08T00:03:42.049Z,101163.56
2022-08-08T00:06:14.066Z,101172.63
2022-08-08T00:08:48.933Z,101168.22
2022-08-08T00:11:22.149Z,101171.91
2022-08-08T00:14:15.879Z,101125.03
2022-08-08T00:16:44.710Z,101174.72
2022-08-08T00:19:15.890Z,101173.09
2022-08-08T00:21:48.297Z,101174.97
2022-08-08T00:24:19.212Z,101176.03
2022-08-08T00:26:53.664Z,101135.03
2022-08-08T00:29:45.032Z,101174.59
2022-08-08T00:32:28.855Z,101166.50
2022-08-08T00:35:20.474Z,101173.72
2022-08-08T00:38:01.690Z,101169.44
2022-08-08T00:41:22.009Z,101165.75
2022-08-08T00:44:00.786Z,101168.72
2022-08-08T00:46:58.833Z,101166.00
2022-08-08T00:49:59.223Z,101151.81
2022-08-08T00:52:48.785Z,101162.72
2022-08-08T00:55:54.019Z,101131.13
2022-08-08T00:58:35.206Z,101161.13
2022-08-08T01:01:11.405Z,101163.81
2022-08-08T01:04:26.820Z,101152.56
2022-08-08T01:07:55.570Z,101163.34
2022-08-08T01:10:56.531Z,101157.53
2022-08-08T01:13:52.653Z,101045.38
2022-08-08T01:17:07.398Z,101152.53
2022-08-08T01:20:03.940Z,101164.41
2022-08-08T01:22:57.189Z,101168.19
2022-08-08T01:25:48.858Z,101166.63
2022-08-08T01:32:06.298Z,101163.28
2022-08-08T01:34:46.580Z,101163.53
2022-08-08T01:37:57.376Z,101151.78
2022-08-08T01:40:28.892Z,101172.84
2022-08-08T01:42:59.714Z,101168.66
2022-08-08T01:45:38.418Z,101167.81
2022-08-08T01:48:23.386Z,101165.50
2022-08-08T01:52:42.076Z,101169.66
2022-08-08T01:55:45.150Z,101160.94
2022-08-08T01:57:21.009Z,101160.59
2022-08-08T02:00:05.658Z,101170.25
2022-08-08T02:02:42.729Z,101137.94
2022-08-08T02:05:18.947Z,101168.78
2022-08-08T02:08:01.925Z,101164.25
2022-08-08T02:10:44.972Z,101160.09
2022-08-08T02:13:52.934Z,101138.78
2022-08-08T02:16:08.246Z,101169.50
2022-08-08T02:19:00.769Z,101125.81
2022-08-08T02:22:00.815Z,101155.66
2022-08-08T02:24:33.438Z,101133.50
2022-08-08T02:27:03.988Z,101167.28
2022-08-08T02:29:46.837Z,101166.53
2022-08-08T02:32:29.299Z,101170.22
2022-08-08T02:36:03.280Z,101170.34
2022-08-08T02:38:49.231Z,101166.13
2022-08-08T02:42:03.708Z,101169.94
2022-08-08T02:45:03.680Z,101168.34
2022-08-08T02:48:28.012Z,101174.69
2022-08-08T02:51:30.454Z,101167.72
2022-08-08T02:54:27.940Z,101165.38
2022-08-08T02:57:45.041Z,101169.53
2022-08-08T03:00:35.899Z,101161.94
2022-08-08T03:05:00.960Z,101173.31
2022-08-08T03:06:53.976Z,101170.13
2022-08-08T03:09:58.816Z,101171.94
2022-08-08T03:13:02.416Z,101111.91
2022-08-08T03:15:58.109Z,101174.00
2022-08-08T03:18:37.712Z,101176.91
2022-08-08T03:21:09.682Z,101178.75
2022-08-08T03:23:56.449Z,101174.34
2022-08-08T03:26:30.630Z,101176.41
2022-08-08T03:29:01.172Z,101181.78
2022-08-08T03:32:05.095Z,101171.28
2022-08-08T03:34:34.736Z,101174.09
2022-08-08T03:37:19.904Z,101183.88
2022-08-08T03:40:00.441Z,101185.78
2022-08-08T03:42:30.437Z,101175.28
2022-08-08T03:44:58.802Z,101185.69
2022-08-08T03:47:39.645Z,101179.47
2022-08-08T03:50:20.049Z,101136.31
2022-08-08T03:52:52.279Z,101193.03
2022-08-08T03:55:57.343Z,101193.38
2022-08-08T03:58:36.304Z,101198.97
2022-08-08T04:01:23.014Z,101205.31
2022-08-08T04:03:58.984Z,101213.38
2022-08-08T04:06:29.284Z,101206.16
2022-08-08T04:08:58.011Z,101194.53
2022-08-08T04:11:27.119Z,101212.88
2022-08-08T04:14:03.387Z,101213.00
2022-08-08T04:16:49.217Z,101212.00
2022-08-08T04:19:24.085Z,101213.94
2022-08-08T04:21:54.081Z,101181.81
2022-08-08T04:24:28.884Z,101213.31
2022-08-08T04:26:59.869Z,101215.03
2022-08-08T04:29:33.355Z,101215.25
2022-08-08T04:32:06.746Z,101217.94
2022-08-08T04:34:43.022Z,101217.19
2022-08-08T04:37:26.268Z,101217.31
2022-08-08T04:40:05.299Z,101219.16
2022-08-08T04:42:37.316Z,101224.53
2022-08-08T04:45:14.823Z,101218.41
2022-08-08T04:47:46.401Z,101224.75
2022-08-08T04:50:23.856Z,101228.38
2022-08-08T04:53:01.147Z,101229.47
2022-08-08T04:55:47.828Z,101162.00
2022-08-08T04:58:22.730Z,101237.66
2022-08-08T05:00:51.595Z,101235.94
2022-08-08T05:04:10.101Z,101236.06
2022-08-08T05:06:13.515Z,101236.19
2022-08-08T05:08:41.990Z,101239.59
2022-08-08T05:11:18.694Z,101169.00
2022-08-08T05:13:55.260Z,101238.75
2022-08-08T05:16:53.573Z,101237.88
2022-08-08T05:20:12.462Z,101241.53
2022-08-08T05:22:04.075Z,101242.38
2022-08-08T05:24:31.854Z,101244.13
2022-08-08T05:26:59.588Z,101244.13
2022-08-08T05:29:29.603Z,101236.66
2022-08-08T05:32:04.437Z,101242.81
2022-08-08T05:34:36.289Z,101211.03
2022-08-08T05:37:16.008Z,101243.66
2022-08-08T05:39:48.231Z,101241.94
2022-08-08T05:42:16.110Z,101188.72
2022-08-08T05:44:49.458Z,101234.41
2022-08-08T05:47:21.031Z,101247.28
2022-08-08T05:49:56.120Z,101242.44
2022-08-08T05:52:35.598Z,101238.53
2022-08-08T05:55:08.915Z,101241.88
2022-08-08T05:58:04.011Z,101237.31
2022-08-08T06:00:27.519Z,101248.81
2022-08-08T06:03:23.589Z,101247.72
2022-08-08T06:05:59.218Z,101241.28
2022-08-08T06:08:34.445Z,101243.00
2022-08-08T06:11:04.265Z,101241.06
2022-08-08T06:13:35.898Z,101233.69
2022-08-08T06:16:13.105Z,101253.56
2022-08-08T06:18:41.879Z,101187.84
2022-08-08T06:21:27.981Z,101250.56
2022-08-08T06:24:03.507Z,101250.09
2022-08-08T06:26:45.262Z,101244.22
2022-08-08T06:29:48.916Z,101254.22
2022-08-08T06:32:15.031Z,101249.66
2022-08-08T06:34:52.663Z,101184.06
2022-08-08T06:37:37.066Z,101253.28
2022-08-08T06:40:10.423Z,101256.31
2022-08-08T06:42:43.412Z,101256.09
2022-08-08T06:45:11.612Z,101253.78
2022-08-08T06:47:52.742Z,101197.34
2022-08-08T06:50:31.401Z,101258.44
2022-08-08T06:53:00.776Z,101256.03
2022-08-08T06:55:41.893Z,101261.06
2022-08-08T06:58:09.811Z,101256.59
2022-08-08T07:00:40.675Z,101267.22
2022-08-08T07:03:52.241Z,101225.25
2022-08-08T07:06:02.390Z,101263.91
2022-08-08T07:08:33.281Z,101263.69
2022-08-08T07:11:01.013Z,101189.41
2022-08-08T07:13:31.166Z,101130.75
2022-08-08T07:16:10.025Z,101260.34
2022-08-08T07:18:46.780Z,101250.06
2022-08-08T07:21:20.343Z,101105.13
2022-08-08T07:24:01.198Z,101269.69
2022-08-08T07:26:35.586Z,101262.81
2022-08-08T07:29:05.915Z,101264.28
2022-08-08T07:31:36.565Z,101260.19
2022-08-08T07:34:09.156Z,101263.63
2022-08-08T07:36:37.534Z,101251.50
2022-08-08T07:39:16.250Z,101264.53
2022-08-08T07:42:03.767Z,101265.06
2022-08-08T07:44:40.614Z,101266.66
2022-08-08T07:47:11.284Z,101257.13
2022-08-08T07:49:40.548Z,101274.59
2022-08-08T07:52:08.389Z,101265.72
2022-08-08T07:54:44.901Z,101267.69
2022-08-08T07:57:27.547Z,101254.63
2022-08-08T08:00:00.287Z,101223.38
2022-08-08T08:02:33.154Z,101275.69
2022-08-08T08:05:14.831Z,101200.97
2022-08-08T08:07:45.725Z,101272.72
2022-08-08T08:10:14.099Z,101272.06
2022-08-08T08:12:43.744Z,101276.66
2022-08-08T08:15:11.548Z,101274.34
2022-08-08T08:17:49.015Z,101277.78
2022-08-08T08:20:18.904Z,101272.53
2022-08-08T08:22:47.326Z,101270.78
2022-08-08T08:25:16.928Z,101271.78
2022-08-08T08:27:47.373Z,101270.31
2022-08-08T08:30:15.469Z,101273.75
2022-08-08T08:32:51.223Z,101278.50
2022-08-08T08:35:29.524Z,101273.59
2022-08-08T08:38:18.578Z,101284.38
2022-08-08T08:40:48.621Z,101278.00
2022-08-08T08:43:19.410Z,101208.88
2022-08-08T08:45:48.898Z,101275.22
2022-08-08T08:48:19.601Z,101282.56
2022-08-08T08:50:52.016Z,101282.31
2022-08-08T08:53:55.252Z,101276.56
2022-08-08T08:56:08.361Z,101265.03
2022-08-08T08:58:39.712Z,101263.69
2022-08-08T09:01:13.432Z,101279.00
2022-08-08T09:03:45.946Z,101286.72
2022-08-08T09:06:28.551Z,101233.09
2022-08-08T09:09:03.874Z,101237.13
2022-08-08T09:11:35.250Z,101280.53
2022-08-08T09:14:15.884Z,101267.31
2022-08-08T09:16:43.607Z,101277.84
2022-08-08T09:19:11.326Z,101281.31
2022-08-08T09:21:57.824Z,101273.25
2022-08-08T09:24:29.676Z,101271.28
2022-08-08T09:27:06.231Z,101275.44
2022-08-08T09:29:52.530Z,101225.25
2022-08-08T09:32:31.851Z,101245.22
2022-08-08T09:35:04.067Z,101276.38
2022-08-08T09:37:58.732Z,101272.88
2022-08-08T09:40:43.269Z,101271.38
2022-08-08T09:43:40.855Z,101276.41
2022-08-08T09:46:11.303Z,101275.09
2022-08-08T09:48:50.034Z,101273.41
2022-08-08T09:51:18.020Z,101275.56
2022-08-08T09:54:07.597Z,101231.75
2022-08-08T09:56:40.888Z,101268.41
2022-08-08T09:59:40.466Z,101275.03
2022-08-08T10:01:58.969Z,101268.63
2022-08-08T10:04:38.510Z,101266.50
2022-08-08T10:07:15.747Z,101261.09
2022-08-08T10:09:59.861Z,101262.41
2022-08-08T10:12:38.215Z,101196.81
2022-08-08T10:15:20.347Z,101264.47
2022-08-08T10:18:06.185Z,101254.41
2022-08-08T10:20:51.283Z,101249.63
2022-08-08T10:23:41.830Z,101219.19
2022-08-08T10:26:25.800Z,101198.47
2022-08-08T10:29:03.167Z,101252.88
2022-08-08T10:31:49.257Z,101193.19
2022-08-08T10:34:19.101Z,101251.78
2022-08-08T10:36:48.272Z,101216.69
2022-08-08T10:39:19.612Z,101251.66
2022-08-08T10:42:13.017Z,101254.41
2022-08-08T10:44:43.188Z,101258.69
2022-08-08T10:47:11.788Z,101258.53
2022-08-08T10:50:01.659Z,101248.09
2022-08-08T10:52:31.151Z,101241.97
2022-08-08T10:54:59.762Z,101245.66
2022-08-08T10:57:45.382Z,101248.34
2022-08-08T11:00:21.910Z,101218.28
2022-08-08T11:02:50.301Z,101242.22
2022-08-08T11:05:18.169Z,101246.19
2022-08-08T11:08:37.905Z,101154.31
2022-08-08T11:10:36.976Z,101246.78
2022-08-08T11:13:28.798Z,101201.22
2022-08-08T11:16:07.425Z,101247.47
2022-08-08T11:18:39.981Z,101244.84
2022-08-08T11:21:09.024Z,101242.53
2022-08-08T11:23:46.993Z,101240.25
2022-08-08T11:26:30.686Z,101237.16
2022-08-08T11:29:00.432Z,101175.13
2022-08-08T11:31:30.096Z,101238.91
2022-08-08T11:34:23.024Z,101233.09
2022-08-08T11:37:14.705Z,101234.69
2022-08-08T11:39:43.359Z,101206.75
2022-08-08T11:42:27.006Z,101231.31
2022-08-08T11:44:59.941Z,101167.75
2022-08-08T11:47:39.917Z,101185.13
2022-08-08T11:50:23.334Z,101224.50
2022-08-08T11:52:52.381Z,101218.22
2022-08-08T11:55:26.561Z,101222.41
2022-08-08T11:58:05.436Z,101221.25
2022-08-08T12:00:44.689Z,101220.25
2022-08-08T12:03:16.854Z,101219.84
2022-08-08T12:05:48.912Z,101224.41
2022-08-08T12:08:17.488Z,101176.28
2022-08-08T12:10:49.167Z,101224.13
2022-08-08T12:13:17.640Z,101175.28
2022-08-08T12:15:49.818Z,101225.69
2022-08-08T12:18:21.678Z,101216.72
2022-08-08T12:20:54.153Z,101227.41
2022-08-08T12:23:40.069Z,101227.41
2022-08-08T12:26:17.436Z,101227.41
2022-08-08T12:28:57.151Z,101234.69
2022-08-08T12:31:39.347Z,101176.69
2022-08-08T12:34:21.152Z,101226.97
2022-08-08T12:37:04.630Z,101224.28
2022-08-08T12:40:00.457Z,101226.25
2022-08-08T12:42:33.028Z,101221.38
2022-08-08T12:45:53.508Z,101223.09
2022-08-08T12:48:09.699Z,101158.13
2022-08-08T12:50:42.380Z,101158.28
2022-08-08T12:53:21.693Z,101219.56
2022-08-08T12:56:17.930Z,101214.97
2022-08-08T12:58:45.785Z,101164.13
2022-08-08T13:01:13.639Z,101172.97
2022-08-08T13:03:51.768Z,101214.44
2022-08-08T13:06:20.549Z,101219.69
2022-08-08T13:08:53.538Z,101190.38
2022-08-08T13:11:28.661Z,101218.94
2022-08-08T13:14:15.459Z,101220.09
2022-08-08T13:16:43.273Z,101218.22
2022-08-08T13:19:20.507Z,101209.00
2022-08-08T13:22:02.579Z,101207.00
2022-08-08T13:24:40.957Z,101164.81
2022-08-08T13:27:13.207Z,101206.88
2022-08-08T13:29:50.430Z,101164.28
2022-08-08T13:32:18.368Z,101207.75
2022-08-08T13:34:52.643Z,101209.31
2022-08-08T13:37:27.896Z,101207.75
2022-08-08T13:40:09.342Z,101198.50
2022-08-08T13:42:37.596Z,101162.19
2022-08-08T13:45:07.347Z,101212.31
2022-08-08T13:47:40.230Z,101200.50
2022-08-08T13:50:35.386Z,101208.19
2022-08-08T13:53:22.600Z,101200.78
2022-08-08T13:55:58.577Z,101200.78
2022-08-08T13:58:29.021Z,101193.69
2022-08-08T14:00:57.133Z,101207.38
2022-08-08T14:03:47.292Z,101204.50
2022-08-08T14:06:33.679Z,101201.13
2022-08-08T14:09:24.278Z,101200.41
2022-08-08T14:11:50.149Z,101197.94
2022-08-08T14:14:20.924Z,101203.97
2022-08-08T14:16:55.272Z,101198.41
2022-08-08T14:19:57.071Z,101200.84
2022-08-08T14:22:23.188Z,101150.97
2022-08-08T14:24:53.784Z,101165.47
2022-08-08T14:27:26.954Z,101137.72
2022-08-08T14:29:58.148Z,101202.53
2022-08-08T14:32:29.631Z,101202.25
2022-08-08T14:34:59.331Z,101199.41
2022-08-08T14:37:42.950Z,101204.22
2022-08-08T14:40:23.971Z,101208.78
2022-08-08T14:42:54.861Z,101203.66
2022-08-08T14:45:29.117Z,101203.66
2022-08-08T14:48:12.455Z,101195.41
2022-08-08T14:50:45.407Z,101196.13
2022-08-08T14:53:15.253Z,101198.69
2022-08-08T14:55:43.731Z,101167.50
2022-08-08T14:58:16.515Z,101193.41
2022-08-08T15:00:47.973Z,101195.69
2022-08-08T15:03:17.520Z,101136.47
2022-08-08T15:05:53.208Z,101192.09
2022-08-08T15:08:35.664Z,101187.94
2022-08-08T15:11:07.007Z,101190.06
2022-08-08T15:13:39.772Z,101185.38
2022-08-08T15:16:12.238Z,101188.47
2022-08-08T15:18:44.105Z,101184.38
2022-08-08T15:21:18.938Z,101188.50
2022-08-08T15:23:50.831Z,101187.03
2022-08-08T15:26:19.773Z,101187.03
2022-08-08T15:28:53.097Z,101181.31
2022-08-08T15:31:25.874Z,101178.91
2022-08-08T15:34:18.516Z,101190.97
2022-08-08T15:36:56.735Z,101146.16
2022-08-08T15:39:25.970Z,101190.94
2022-08-08T15:41:53.986Z,101196.06
2022-08-08T15:44:22.212Z,101189.47
2022-08-08T15:46:50.550Z,101192.63
2022-08-08T15:49:20.788Z,101189.91
2022-08-08T15:51:49.853Z,101196.28
2022-08-08T15:54:37.379Z,101195.09
2022-08-08T15:57:07.542Z,101197.53
2022-08-08T16:00:05.689Z,101188.97
2022-08-08T16:02:30.550Z,101200.38
2022-08-08T16:04:59.142Z,101199.34
2022-08-08T16:07:39.492Z,101205.34
2022-08-08T16:13:03.642Z,101157.06
2022-08-08T16:13:33.841Z,101201.16
2022-08-08T16:15:58.971Z,101198.28
2022-08-08T16:18:27.709Z,101202.88
2022-08-08T16:21:00.614Z,101206.56
2022-08-08T16:23:31.900Z,101195.06
2022-08-08T16:26:05.047Z,101194.75
2022-08-08T16:28:42.304Z,101203.72
2022-08-08T16:31:10.448Z,101194.44
2022-08-08T16:33:39.968Z,101195.28
2022-08-08T16:36:09.545Z,101194.97
2022-08-08T16:38:44.732Z,101185.28
2022-08-08T16:41:18.452Z,101131.22
2022-08-08T16:43:51.308Z,101193.22
2022-08-08T16:46:43.546Z,101195.63
2022-08-08T16:49:07.763Z,101190.72
2022-08-08T16:55:03.230Z,101185.84
2022-08-08T16:55:04.083Z,101194.00
2022-08-08T16:57:22.835Z,101196.41
2022-08-08T17:00:06.145Z,101192.50
2022-08-08T17:02:39.587Z,101198.81
2022-08-08T17:05:08.319Z,101200.50
2022-08-08T17:07:37.497Z,101164.69
2022-08-08T17:10:08.022Z,101193.78
2022-08-08T17:12:36.666Z,101197.47
2022-08-08T17:15:20.320Z,101210.31
2022-08-08T17:18:02.541Z,101200.41
2022-08-08T17:20:32.297Z,101207.22
2022-08-08T17:23:18.201Z,101187.50
2022-08-08T17:25:53.428Z,101218.06
2022-08-08T17:28:34.571Z,101224.84
2022-08-08T17:31:39.462Z,101230.56
2022-08-08T17:34:48.334Z,101230.72
2022-08-08T17:36:47.932Z,101237.84
2022-08-08T17:40:05.104Z,101208.28
2022-08-08T17:42:15.511Z,101208.28
2022-08-08T17:44:44.218Z,101248.69
2022-08-08T17:47:23.365Z,101244.97
2022-08-08T17:49:52.430Z,101242.41
2022-08-08T17:52:23.231Z,101240.00
2022-08-08T17:54:56.347Z,101239.84
2022-08-08T17:57:24.363Z,101244.03
2022-08-08T17:59:58.855Z,101249.63
2022-08-08T18:02:30.988Z,101236.84
2022-08-08T18:05:00.725Z,101244.16
2022-08-08T18:08:01.183Z,101251.00
2022-08-08T18:10:20.408Z,101259.06
2022-08-08T18:13:00.466Z,101257.94
2022-08-08T18:15:31.286Z,101262.13
2022-08-08T18:18:10.180Z,101259.16
2022-08-08T18:20:59.352Z,101262.47
2022-08-08T18:23:27.661Z,101256.75
2022-08-08T18:25:56.475Z,101259.94
2022-08-08T18:28:29.392Z,101260.38
2022-08-08T18:34:10.445Z,101275.81
2022-08-08T18:36:22.959Z,101273.69
2022-08-08T18:38:52.502Z,101273.13
2022-08-08T18:41:20.202Z,101287.13
2022-08-08T18:44:07.913Z,101274.88
2022-08-08T18:46:55.862Z,101279.13
2022-08-08T18:49:32.041Z,101282.84
2022-08-08T18:52:02.191Z,101286.72
2022-08-08T18:54:30.797Z,101294.28
2022-08-08T18:56:58.745Z,101295.56
2022-08-08T18:59:34.608Z,101299.38
2022-08-08T19:02:27.620Z,101302.66
2022-08-08T19:04:55.409Z,101303.66
2022-08-08T19:07:25.762Z,101306.81
2022-08-08T19:10:14.599Z,101310.66
2022-08-08T19:12:44.646Z,101312.78
2022-08-08T19:15:21.712Z,101323.03
2022-08-08T19:18:33.554Z,101329.59
2022-08-08T19:20:46.621Z,101330.75
2022-08-08T19:23:14.546Z,101339.00
2022-08-08T19:26:02.208Z,101340.41
2022-08-08T19:28:32.189Z,101340.69
2022-08-08T19:31:07.180Z,101346.25
2022-08-08T19:33:39.554Z,101346.53
2022-08-08T19:36:27.548Z,101344.38
2022-08-08T19:38:56.284Z,101349.78
2022-08-08T19:41:29.209Z,101303.84
2022-08-08T19:44:03.751Z,101350.22
2022-08-08T19:46:40.534Z,101358.63
2022-08-08T19:49:09.808Z,101348.34
2022-08-08T19:51:43.378Z,101367.16
2022-08-08T19:54:11.834Z,101364.59
2022-08-08T19:56:41.434Z,101363.00
2022-08-08T19:59:22.248Z,101367.66
2022-08-08T20:02:02.532Z,101359.84
2022-08-08T20:04:31.744Z,101349.28
2022-08-08T20:07:03.548Z,101365.66
2022-08-08T20:09:56.130Z,101368.63
2022-08-08T20:12:32.290Z,101368.91
2022-08-08T20:15:14.222Z,101368.06
2022-08-08T20:17:42.907Z,101317.28
2022-08-08T20:20:15.922Z,101374.03
2022-08-08T20:22:54.154Z,101376.28
2022-08-08T20:25:24.691Z,101377.00
2022-08-08T20:27:58.323Z,101379.84
2022-08-08T20:30:38.973Z,101388.09
2022-08-08T20:35:58.493Z,101371.50
2022-08-08T20:38:32.119Z,101393.91
2022-08-08T20:41:01.080Z,101394.06
2022-08-08T20:43:43.525Z,101403.13
2022-08-08T20:46:12.039Z,101393.47
2022-08-08T20:48:40.985Z,101399.00
2022-08-08T20:51:08.920Z,101394.72
2022-08-08T20:54:00.932Z,101398.41
2022-08-08T20:56:35.033Z,101302.03
2022-08-08T20:59:05.941Z,101403.38
2022-08-08T21:01:44.325Z,101397.09
2022-08-08T21:04:23.330Z,101402.78
2022-08-08T21:06:52.735Z,101401.09
2022-08-08T21:09:22.935Z,101407.47
2022-08-08T21:11:53.503Z,101406.75
2022-08-08T21:14:34.464Z,101413.13
2022-08-08T21:17:03.130Z,101411.44
2022-08-08T21:19:45.433Z,101413.41
2022-08-08T21:22:14.259Z,101409.00
2022-08-08T21:24:53.818Z,101411.78
2022-08-08T21:28:06.397Z,101411.06
2022-08-08T21:30:18.851Z,101411.19
2022-08-08T21:32:52.394Z,101413.91
2022-08-08T21:36:18.150Z,101414.03
2022-08-08T21:38:16.193Z,101416.03
2022-08-08T21:40:55.691Z,101413.47
2022-08-08T21:43:25.559Z,101415.44
2022-08-08T21:48:08.148Z,101423.66
2022-08-08T21:48:50.905Z,101425.50
2022-08-08T21:51:20.270Z,101421.22
2022-08-08T21:54:33.384Z,101355.84
2022-08-08T21:56:57.027Z,101412.53
2022-08-08T21:59:44.244Z,101406.69
2022-08-08T22:02:15.983Z,101409.13
2022-08-08T22:04:47.002Z,101420.06
2022-08-08T22:07:16.785Z,101418.44
2022-08-08T22:09:46.710Z,101408.03
2022-08-08T22:12:16.878Z,101416.88
2022-08-08T22:14:49.851Z,101420.72
2022-08-08T22:17:18.395Z,101424.38
2022-08-08T22:20:11.520Z,101424.38
2022-08-08T22:22:37.856Z,101433.50
2022-08-08T22:25:12.383Z,101427.22
2022-08-08T22:28:03.054Z,101430.06
2022-08-08T22:30:42.527Z,101425.16
2022-08-08T22:34:10.766Z,101438.41
2022-08-08T22:36:05.401Z,101436.72
2022-08-08T22:38:48.196Z,101422.03
2022-08-08T22:41:21.551Z,101438.81
2022-08-08T22:44:02.213Z,101432.69
2022-08-08T22:46:33.806Z,101439.06
2022-08-08T22:49:01.577Z,101376.63
2022-08-08T22:51:30.174Z,101442.03
2022-08-08T22:54:30.506Z,101447.44
2022-08-08T22:56:50.660Z,101440.31
2022-08-08T22:59:19.728Z,101446.72
2022-08-08T23:02:01.607Z,101453.22
2022-08-08T23:04:32.251Z,101455.22
2022-08-08T23:07:02.893Z,101452.50
2022-08-08T23:09:31.248Z,101449.06
2022-08-08T23:12:29.103Z,101449.19
2022-08-08T23:15:10.731Z,101452.03
2022-08-08T23:17:54.174Z,101454.00
2022-08-08T23:20:27.374Z,101449.59
2022-08-08T23:22:56.757Z,101445.19
2022-08-08T23:25:24.648Z,101453.38
2022-08-08T23:27:54.368Z,101453.38
2022-08-08T23:30:23.703Z,101447.22
2022-08-08T23:32:51.597Z,101378.53
2022-08-08T23:35:19.382Z,101454.59
2022-08-08T23:38:01.683Z,101387.63
2022-08-08T23:40:31.437Z,101450.31
2022-08-08T23:43:02.667Z,101448.75
2022-08-08T23:49:02.235Z,101455.22
2022-08-08T23:49:05.326Z,101455.97
2022-08-08T23:51:12.636Z,101468.72
2022-08-08T23:54:04.797Z,101460.75
2022-08-08T23:56:32.274Z,101459.19
2022-08-08T23:59:02.443Z,101459.19
